createdAt,value
2022-11-16T00:01:17.137Z,25.45
2022-11-16T00:03:44.739Z,25.88
2022-11-16T00:06:13.129Z,26.33
2022-11-16T00:08:44.620Z,23.35
2022-11-16T00:11:18.254Z,19.27
2022-11-16T00:13:45.712Z,26.30
2022-11-16T00:16:15.956Z,24.98
2022-11-16T00:18:43.977Z,26.75
2022-11-16T00:21:11.839Z,26.88
2022-11-16T00:23:39.479Z,25.08
2022-11-16T00:26:08.328Z,21.73
2022-11-16T00:28:35.743Z,21.27
2022-11-16T00:31:04.666Z,23.90
2022-11-16T00:33:32.256Z,23.58
2022-11-16T00:36:01.886Z,21.58
2022-11-16T00:38:31.074Z,20.73
2022-11-16T00:40:58.099Z,20.75
2022-11-16T00:43:25.221Z,20.67
2022-11-16T00:45:52.386Z,18.58
2022-11-16T00:48:19.712Z,21.77
2022-11-16T00:50:46.755Z,20.55
2022-11-16T00:53:16.322Z,20.27
2022-11-16T00:55:44.716Z,19.60
2022-11-16T00:58:12.482Z,22.08
2022-11-16T01:00:40.837Z,24.58
2022-11-16T01:03:08.446Z,19.48
2022-11-16T01:05:35.418Z,21.88
2022-11-16T01:08:02.255Z,23.50
2022-11-16T01:10:29.722Z,20.92
2022-11-16T01:12:56.602Z,22.52
2022-11-16T01:15:26.625Z,20.85
2022-11-16T01:17:55.705Z,18.15
2022-11-16T01:20:25.398Z,17.77
2022-11-16T01:22:52.813Z,16.63
2022-11-16T01:25:20.186Z,16.48
2022-11-16T01:27:47.693Z,17.17
2022-11-16T01:30:16.446Z,16.13
2022-11-16T01:32:43.445Z,17.02
2022-11-16T01:35:14.743Z,15.57
2022-11-16T01:37:41.584Z,16.58
2022-11-16T01:40:09.655Z,16.35
2022-11-16T01:42:36.560Z,19.52
2022-11-16T01:45:08.439Z,17.38
2022-11-16T01:47:35.323Z,16.52
2022-11-16T01:50:14.482Z,16.90
2022-11-16T01:52:59.778Z,14.27
2022-11-16T01:55:30.753Z,13.50
2022-11-16T01:57:57.785Z,13.65
2022-11-16T02:00:24.780Z,15.15
2022-11-16T02:02:51.618Z,14.35
2022-11-16T02:05:22.511Z,12.65
2022-11-16T02:08:19.490Z,13.85
2022-11-16T02:11:31.026Z,13.70
2022-11-16T02:14:00.997Z,10.95
2022-11-16T02:16:49.832Z,11.30
2022-11-16T02:19:34.722Z,14.45
2022-11-16T02:22:18.235Z,13.57
2022-11-16T02:24:50.516Z,13.25
2022-11-16T02:27:53.474Z,16.20
2022-11-16T02:30:21.440Z,9.50
2022-11-16T02:33:01.715Z,11.32
2022-11-16T02:35:38.317Z,11.65
2022-11-16T02:38:27.997Z,12.27
2022-11-16T02:41:01.770Z,10.75
2022-11-16T02:43:49.844Z,10.70
2022-11-16T02:46:21.966Z,10.93
2022-11-16T02:51:18.795Z,11.75
2022-11-16T02:54:12.945Z,11.15
2022-11-16T02:56:54.149Z,11.18
2022-11-16T02:59:22.729Z,10.68
2022-11-16T03:02:01.337Z,13.85
2022-11-16T03:04:37.579Z,10.40
2022-11-16T03:07:08.998Z,10.45
2022-11-16T03:09:38.948Z,12.30
2022-11-16T03:12:10.565Z,10.90
2022-11-16T03:14:52.135Z,9.88
2022-11-16T03:17:45.080Z,12.38
2022-11-16T03:20:14.133Z,12.07
2022-11-16T03:22:45.072Z,12.82
2022-11-16T03:25:16.006Z,14.23
2022-11-16T03:27:49.829Z,12.23
2022-11-16T03:30:23.727Z,14.48
2022-11-16T03:33:17.042Z,13.15
2022-11-16T03:35:55.542Z,11.75
2022-11-16T03:38:26.757Z,13.05
2022-11-16T03:40:56.367Z,13.53
2022-11-16T03:43:25.341Z,11.30
2022-11-16T03:45:52.947Z,12.65
2022-11-16T03:48:19.913Z,10.88
2022-11-16T03:50:46.992Z,10.70
2022-11-16T03:53:13.811Z,10.52
2022-11-16T03:55:42.570Z,11.07
2022-11-16T03:58:12.457Z,12.73
2022-11-16T04:00:39.722Z,11.63
2022-11-16T04:03:06.620Z,11.18
2022-11-16T04:05:52.049Z,9.20
2022-11-16T04:08:37.337Z,9.65
2022-11-16T04:11:22.756Z,10.98
2022-11-16T04:14:09.557Z,12.70
2022-11-16T04:16:54.853Z,15.02
2022-11-16T04:19:40.208Z,14.32
2022-11-16T04:22:39.965Z,13.80
2022-11-16T04:25:16.251Z,14.73
2022-11-16T04:28:01.864Z,13.43
2022-11-16T04:30:49.274Z,15.65
2022-11-16T04:33:34.901Z,17.73
2022-11-16T04:36:22.601Z,14.90
2022-11-16T04:38:49.615Z,18.83
2022-11-16T04:41:34.930Z,18.33
2022-11-16T04:44:01.780Z,20.85
2022-11-16T04:46:47.280Z,19.55
2022-11-16T04:49:14.130Z,19.67
2022-11-16T04:51:40.980Z,22.95
2022-11-16T04:54:07.840Z,22.20
2022-11-16T04:56:34.649Z,22.45
2022-11-16T04:59:01.494Z,23.48
2022-11-16T05:01:47.202Z,23.80
2022-11-16T05:04:14.155Z,22.30
2022-11-16T05:06:41.049Z,20.98
2022-11-16T05:09:08.063Z,21.00
2022-11-16T05:11:35.149Z,19.70
2022-11-16T05:14:02.557Z,17.25
2022-11-16T05:16:29.494Z,16.38
2022-11-16T05:19:14.728Z,18.13
2022-11-16T05:21:41.905Z,15.10
2022-11-16T05:24:27.781Z,16.17
2022-11-16T05:26:54.611Z,20.48
2022-11-16T05:29:21.406Z,19.02
2022-11-16T05:31:51.712Z,18.38
2022-11-16T05:34:18.500Z,18.23
2022-11-16T05:36:45.355Z,19.42
2022-11-16T05:39:12.652Z,17.75
2022-11-16T05:41:39.745Z,15.75
2022-11-16T05:46:06.887Z,18.75
2022-11-16T05:48:34.412Z,17.13
2022-11-16T05:51:01.432Z,19.75
2022-11-16T05:53:28.348Z,23.05
2022-11-16T05:55:55.220Z,20.15
2022-11-16T05:58:22.002Z,19.17
2022-11-16T06:00:49.226Z,16.60
2022-11-16T06:03:16.280Z,15.13
2022-11-16T06:05:43.132Z,17.05
2022-11-16T06:08:09.884Z,8.85
2022-11-16T06:10:37.504Z,7.68
2022-11-16T06:13:04.874Z,6.43
2022-11-16T06:15:31.694Z,8.88
2022-11-16T06:17:58.481Z,10.43
2022-11-16T06:20:25.314Z,8.43
2022-11-16T06:22:52.552Z,9.32
2022-11-16T06:25:19.683Z,6.60
2022-11-16T06:27:46.819Z,7.05
2022-11-16T06:30:13.866Z,6.45
2022-11-16T06:32:40.762Z,6.63
2022-11-16T06:35:10.616Z,5.90
2022-11-16T06:37:37.389Z,5.22
2022-11-16T06:40:05.025Z,5.93
2022-11-16T06:42:32.187Z,6.72
2022-11-16T06:44:59.103Z,10.18
2022-11-16T06:47:30.587Z,9.98
2022-11-16T06:50:00.092Z,7.97
2022-11-16T06:52:28.510Z,7.55
2022-11-16T06:54:55.546Z,6.55
2022-11-16T06:57:23.446Z,6.47
2022-11-16T06:59:50.562Z,6.28
2022-11-16T07:02:18.177Z,7.35
2022-11-16T07:04:47.269Z,7.90
2022-11-16T07:10:03.606Z,8.30
2022-11-16T07:12:30.502Z,7.63
2022-11-16T07:14:57.470Z,8.65
2022-11-16T07:17:24.907Z,6.57
2022-11-16T07:22:39.724Z,6.55
2022-11-16T07:25:07.344Z,7.50
2022-11-16T07:27:36.579Z,9.43
2022-11-16T07:30:04.747Z,8.23
2022-11-16T07:32:35.337Z,7.90
2022-11-16T07:35:02.800Z,6.72
2022-11-16T07:37:30.264Z,7.43
2022-11-16T07:39:57.500Z,11.00
2022-11-16T07:42:24.297Z,35.33
2022-11-16T07:44:51.482Z,10.85
2022-11-16T07:47:18.665Z,7.05
2022-11-16T07:49:49.848Z,8.02
2022-11-16T07:52:16.725Z,8.63
2022-11-16T07:54:43.639Z,6.97
2022-11-16T07:57:10.528Z,68.53
2022-11-16T07:59:37.424Z,33.65
2022-11-16T08:02:05.019Z,12.38
2022-11-16T08:04:32.549Z,7.38
2022-11-16T08:06:59.656Z,11.15
2022-11-16T08:09:26.908Z,24.80
2022-11-16T08:11:53.775Z,33.40
2022-11-16T08:14:20.854Z,51.03
2022-11-16T08:16:47.807Z,9.50
2022-11-16T08:19:14.639Z,7.03
2022-11-16T08:21:41.624Z,6.55
2022-11-16T08:24:08.935Z,6.30
2022-11-16T08:26:35.829Z,5.63
2022-11-16T08:29:02.684Z,5.40
2022-11-16T08:31:30.442Z,3.60
2022-11-16T08:34:00.309Z,4.07
2022-11-16T08:36:27.277Z,4.65
2022-11-16T08:38:54.490Z,4.97
2022-11-16T08:41:22.315Z,6.93
2022-11-16T08:43:55.611Z,6.68
2022-11-16T08:46:23.038Z,9.23
2022-11-16T08:48:50.094Z,6.97
2022-11-16T08:51:20.531Z,7.40
2022-11-16T08:53:49.747Z,7.38
2022-11-16T08:56:18.154Z,8.35
2022-11-16T08:58:47.372Z,6.10
2022-11-16T09:01:24.942Z,9.68
2022-11-16T09:03:55.829Z,5.72
2022-11-16T09:06:25.690Z,6.25
2022-11-16T09:08:54.403Z,7.90
2022-11-16T09:11:23.347Z,6.93
2022-11-16T09:13:53.096Z,4.88
2022-11-16T09:16:21.361Z,6.43
2022-11-16T09:18:51.830Z,4.65
2022-11-16T09:21:24.432Z,8.10
2022-11-16T09:23:52.900Z,13.68
2022-11-16T09:26:22.984Z,6.65
2022-11-16T09:29:00.940Z,6.60
2022-11-16T09:31:29.511Z,5.07
2022-11-16T09:33:59.091Z,4.50
2022-11-16T09:36:28.255Z,5.10
2022-11-16T09:39:29.447Z,4.70
2022-11-16T09:42:00.262Z,5.00
2022-11-16T09:45:08.893Z,4.68
2022-11-16T09:47:49.139Z,4.90
2022-11-16T09:50:34.154Z,4.13
2022-11-16T09:53:24.913Z,4.53
2022-11-16T09:56:01.048Z,3.83
2022-11-16T09:58:42.730Z,5.22
2022-11-16T10:03:54.290Z,4.25
2022-11-16T10:08:54.045Z,4.85
2022-11-16T10:11:49.056Z,5.22
2022-11-16T10:14:53.287Z,4.72
2022-11-16T10:17:51.239Z,4.93
2022-11-16T10:20:49.231Z,3.28
2022-11-16T10:23:31.227Z,3.40
2022-11-16T10:26:10.738Z,4.30
2022-11-16T10:28:59.270Z,4.35
2022-11-16T10:31:52.214Z,4.78
2022-11-16T10:34:24.894Z,5.68
2022-11-16T10:36:57.417Z,5.55
2022-11-16T10:39:26.149Z,4.45
2022-11-16T10:41:53.466Z,6.05
2022-11-16T10:44:42.159Z,4.25
2022-11-16T10:47:33.914Z,5.80
2022-11-16T10:50:15.129Z,5.45
2022-11-16T10:52:43.621Z,3.88
2022-11-16T10:55:19.261Z,3.42
2022-11-16T11:01:07.619Z,2.88
2022-11-16T11:03:36.586Z,3.70
2022-11-16T11:09:01.289Z,10.27
2022-11-16T11:11:47.868Z,7.07
2022-11-16T11:14:16.768Z,4.78
2022-11-16T11:16:52.216Z,9.55
2022-11-16T11:19:30.568Z,6.70
2022-11-16T11:22:00.237Z,4.72
2022-11-16T11:24:43.867Z,4.85
2022-11-16T11:27:14.343Z,8.13
2022-11-16T11:29:43.131Z,4.82
2022-11-16T11:32:23.757Z,6.43
2022-11-16T11:35:06.971Z,4.75
2022-11-16T11:37:38.489Z,6.93
2022-11-16T11:40:34.275Z,5.80
2022-11-16T11:43:04.301Z,5.95
2022-11-16T11:46:00.624Z,7.28
2022-11-16T11:48:49.274Z,4.95
2022-11-16T11:51:43.092Z,4.85
2022-11-16T11:54:24.898Z,6.10
2022-11-16T11:56:53.813Z,5.18
2022-11-16T11:59:25.317Z,6.15
2022-11-16T12:02:22.033Z,5.38
2022-11-16T12:05:13.143Z,6.70
2022-11-16T12:07:43.637Z,7.63
2022-11-16T12:14:01.471Z,5.78
2022-11-16T12:22:45.041Z,7.43
2022-11-16T12:25:44.889Z,5.63
2022-11-16T12:28:51.408Z,6.50
2022-11-16T12:31:36.261Z,6.88
2022-11-16T12:34:13.266Z,7.28
2022-11-16T12:37:27.818Z,8.07
2022-11-16T12:40:20.230Z,7.00
2022-11-16T12:42:52.804Z,9.82
2022-11-16T12:45:32.596Z,8.48
2022-11-16T12:48:27.819Z,7.28
2022-11-16T12:51:42.103Z,8.05
2022-11-16T12:54:33.506Z,8.68
2022-11-16T12:57:27.268Z,8.17
2022-11-16T13:00:04.767Z,9.98
2022-11-16T13:02:54.467Z,8.38
2022-11-16T13:05:31.033Z,9.32
2022-11-16T13:08:03.007Z,8.27
2022-11-16T13:10:37.439Z,10.23
2022-11-16T13:15:59.753Z,9.07
2022-11-16T13:18:28.551Z,11.00
2022-11-16T13:21:10.295Z,8.35
2022-11-16T13:24:04.793Z,10.43
2022-11-16T13:27:02.710Z,8.80
2022-11-16T13:29:47.071Z,9.70
2022-11-16T13:32:46.033Z,10.38
2022-11-16T13:35:18.164Z,8.40
2022-11-16T13:37:52.351Z,9.35
2022-11-16T13:40:27.461Z,12.13
2022-11-16T13:43:09.989Z,7.13
2022-11-16T13:48:45.895Z,13.32
2022-11-16T13:51:31.252Z,9.27
2022-11-16T13:56:51.542Z,8.48
2022-11-16T13:59:35.430Z,10.65
2022-11-16T14:02:24.788Z,9.38
2022-11-16T14:05:14.856Z,8.85
2022-11-16T14:07:50.104Z,10.88
2022-11-16T14:10:36.155Z,13.10
2022-11-16T14:13:13.592Z,19.80
2022-11-16T14:15:40.916Z,17.20
2022-11-16T14:18:09.208Z,17.45
2022-11-16T14:20:57.018Z,15.38
2022-11-16T14:23:48.920Z,21.08
2022-11-16T14:26:27.109Z,21.27
2022-11-16T14:29:03.985Z,15.82
2022-11-16T14:31:49.378Z,17.02
2022-11-16T14:35:01.724Z,17.52
2022-11-16T14:37:37.558Z,14.95
2022-11-16T14:40:21.127Z,18.42
2022-11-16T14:43:15.961Z,18.77
2022-11-16T14:45:48.830Z,18.75
2022-11-16T14:48:19.299Z,18.38
2022-11-16T14:51:18.474Z,18.52
2022-11-16T14:53:50.437Z,23.27
2022-11-16T14:56:19.098Z,26.00
2022-11-16T14:58:59.944Z,21.08
2022-11-16T15:01:31.769Z,23.17
2022-11-16T15:04:09.712Z,20.30
2022-11-16T15:06:50.723Z,19.92
2022-11-16T15:09:27.403Z,19.73
2022-11-16T15:12:13.592Z,22.77
2022-11-16T15:15:03.799Z,22.27
2022-11-16T15:17:33.465Z,38.15
2022-11-16T15:20:21.168Z,22.25
2022-11-16T15:22:53.231Z,27.80
2022-11-16T15:28:23.442Z,29.58
2022-11-16T15:30:53.435Z,22.52
2022-11-16T15:33:43.305Z,20.75
2022-11-16T15:36:51.713Z,20.70
2022-11-16T15:39:38.849Z,18.15
2022-11-16T15:42:17.688Z,24.80
2022-11-16T15:47:59.824Z,19.38
2022-11-16T15:51:10.153Z,20.33
2022-11-16T15:53:40.387Z,22.30
2022-11-16T15:56:28.115Z,19.15
2022-11-16T15:59:10.965Z,21.35
2022-11-16T16:01:50.993Z,27.25
2022-11-16T16:04:22.282Z,22.48
2022-11-16T16:07:06.176Z,27.00
2022-11-16T16:12:24.611Z,26.33
2022-11-16T16:14:52.529Z,24.30
2022-11-16T16:17:28.183Z,27.77
2022-11-16T16:20:07.164Z,26.63
2022-11-16T16:22:39.218Z,27.73
2022-11-16T16:28:14.175Z,30.67
2022-11-16T16:34:12.563Z,30.55
2022-11-16T16:36:45.018Z,33.90
2022-11-16T16:41:58.368Z,32.13
2022-11-16T16:44:31.025Z,36.08
2022-11-16T16:49:51.016Z,33.80
2022-11-16T16:58:06.282Z,37.08
2022-11-16T17:04:09.143Z,36.25
2022-11-16T17:09:41.643Z,37.05
2022-11-16T17:18:13.998Z,38.90
2022-11-16T17:26:21.712Z,38.00
2022-11-16T17:28:49.484Z,38.95
2022-11-16T17:31:20.311Z,37.10
2022-11-16T17:45:41.273Z,40.58
2022-11-16T17:48:09.638Z,38.08
2022-11-16T20:51:34.892Z,60.83
2022-11-16T21:33:42.281Z,38.00
2022-11-16T21:43:04.867Z,29.58
2022-11-16T22:26:10.482Z,20.90
2022-11-16T22:31:29.152Z,23.85
2022-11-16T22:34:00.545Z,24.40
2022-11-16T22:42:10.958Z,26.05
2022-11-16T22:44:41.000Z,24.38
2022-11-16T22:49:56.745Z,25.05
2022-11-16T23:00:44.457Z,23.95
2022-11-16T23:05:53.646Z,19.80
2022-11-16T23:14:42.669Z,17.70
2022-11-16T23:20:14.695Z,13.10
2022-11-16T23:23:35.460Z,12.40
2022-11-16T23:37:28.716Z,15.73
2022-11-16T23:39:58.839Z,19.33
2022-11-16T23:42:50.718Z,14.40
2022-11-16T23:45:19.754Z,20.70
2022-11-16T23:47:48.865Z,21.80
2022-11-16T23:50:16.530Z,19.00
2022-11-16T23:52:46.293Z,25.92
2022-11-16T23:55:16.293Z,22.65
2022-11-16T23:57:51.452Z,22.65
